sensor_id;sensor_type;location;lat;lon;timestamp;P1;durP1;ratioP1;P2;durP2;ratioP2
12373;SDS011;6251;51.762;8.660;2023-07-31T01:01:34;4.30;;;3.78;;
12373;SDS011;6251;51.762;8.660;2023-07-31T01:11:35;5.05;;;4.22;;
12373;SDS011;6251;51.762;8.660;2023-07-31T02:53:16;4.53;;;3.22;;
12373;SDS011;6251;51.762;8.660;2023-07-31T04:04:18;12.57;;;5.78;;
12373;SDS011;6251;51.762;8.660;2023-07-31T04:14:19;14.02;;;6.28;;
12373;SDS011;6251;51.762;8.660;2023-07-31T04:24:20;12.88;;;6.68;;
12373;SDS011;6251;51.762;8.660;2023-07-31T04:34:24;15.20;;;6.93;;
12373;SDS011;6251;51.762;8.660;2023-07-31T04:44:24;15.65;;;6.72;;
12373;SDS011;6251;51.762;8.660;2023-07-31T04:54:25;13.77;;;6.62;;
12373;SDS011;6251;51.762;8.660;2023-07-31T05:04:26;31.63;;;6.73;;
12373;SDS011;6251;51.762;8.660;2023-07-31T05:14:26;16.75;;;6.40;;
12373;SDS011;6251;51.762;8.660;2023-07-31T05:24:27;13.13;;;6.37;;
12373;SDS011;6251;51.762;8.660;2023-07-31T05:34:27;13.88;;;6.28;;
12373;SDS011;6251;51.762;8.660;2023-07-31T05:44:28;12.60;;;6.30;;
12373;SDS011;6251;51.762;8.660;2023-07-31T05:54:28;14.40;;;5.95;;
12373;SDS011;6251;51.762;8.660;2023-07-31T06:04:29;14.38;;;5.95;;
12373;SDS011;6251;51.762;8.660;2023-07-31T06:14:30;12.48;;;6.05;;
12373;SDS011;6251;51.762;8.660;2023-07-31T06:24:30;15.32;;;6.47;;
12373;SDS011;6251;51.762;8.660;2023-07-31T06:34:31;13.15;;;6.05;;
12373;SDS011;6251;51.762;8.660;2023-07-31T06:44:31;19.42;;;6.55;;
12373;SDS011;6251;51.762;8.660;2023-07-31T06:54:32;11.17;;;6.27;;
12373;SDS011;6251;51.762;8.660;2023-07-31T07:04:33;12.50;;;5.87;;
12373;SDS011;6251;51.762;8.660;2023-07-31T07:14:33;9.27;;;6.33;;
12373;SDS011;6251;51.762;8.660;2023-07-31T07:24:34;10.73;;;6.20;;
12373;SDS011;6251;51.762;8.660;2023-07-31T07:34:34;16.37;;;6.68;;
12373;SDS011;6251;51.762;8.660;2023-07-31T07:44:35;14.48;;;7.32;;
12373;SDS011;6251;51.762;8.660;2023-07-31T07:54:35;10.60;;;7.05;;
12373;SDS011;6251;51.762;8.660;2023-07-31T08:04:36;12.67;;;7.37;;
12373;SDS011;6251;51.762;8.660;2023-07-31T08:14:37;8.27;;;6.20;;
12373;SDS011;6251;51.762;8.660;2023-07-31T08:24:37;13.30;;;8.52;;
12373;SDS011;6251;51.762;8.660;2023-07-31T08:34:38;10.00;;;7.05;;
12373;SDS011;6251;51.762;8.660;2023-07-31T08:44:38;11.52;;;8.38;;
12373;SDS011;6251;51.762;8.660;2023-07-31T08:54:39;14.95;;;7.72;;
12373;SDS011;6251;51.762;8.660;2023-07-31T09:15:24;10.77;;;7.60;;
12373;SDS011;6251;51.762;8.660;2023-07-31T09:25:25;8.27;;;6.50;;
12373;SDS011;6251;51.762;8.660;2023-07-31T09:35:30;9.32;;;6.40;;
12373;SDS011;6251;51.762;8.660;2023-07-31T09:45:33;11.95;;;6.43;;
12373;SDS011;6251;51.762;8.660;2023-07-31T09:55:37;7.28;;;5.70;;
12373;SDS011;6251;51.762;8.660;2023-07-31T10:05:49;6.43;;;5.72;;
12373;SDS011;6251;51.762;8.660;2023-07-31T10:15:51;6.60;;;5.30;;
12373;SDS011;6251;51.762;8.660;2023-07-31T10:25:56;4.47;;;4.07;;
12373;SDS011;6251;51.762;8.660;2023-07-31T10:46:17;4.53;;;4.12;;
12373;SDS011;6251;51.762;8.660;2023-07-31T10:56:18;4.72;;;4.18;;
12373;SDS011;6251;51.762;8.660;2023-07-31T11:06:22;2.78;;;2.58;;
12373;SDS011;6251;51.762;8.660;2023-07-31T11:16:24;2.75;;;2.58;;
12373;SDS011;6251;51.762;8.660;2023-07-31T11:26:25;2.30;;;2.20;;
12373;SDS011;6251;51.762;8.660;2023-07-31T11:36:25;2.35;;;2.25;;
12373;SDS011;6251;51.762;8.660;2023-07-31T11:46:26;2.72;;;2.03;;
12373;SDS011;6251;51.762;8.660;2023-07-31T11:56:27;1.90;;;1.80;;
12373;SDS011;6251;51.762;8.660;2023-07-31T12:06:34;1.60;;;1.60;;
12373;SDS011;6251;51.762;8.660;2023-07-31T12:16:36;1.45;;;1.30;;
12373;SDS011;6251;51.762;8.660;2023-07-31T12:26:36;1.35;;;1.35;;
12373;SDS011;6251;51.762;8.660;2023-07-31T12:36:37;1.10;;;1.10;;
12373;SDS011;6251;51.762;8.660;2023-07-31T12:46:39;1.50;;;1.50;;
12373;SDS011;6251;51.762;8.660;2023-07-31T12:56:40;1.90;;;1.80;;
12373;SDS011;6251;51.762;8.660;2023-07-31T13:06:41;2.50;;;2.25;;
12373;SDS011;6251;51.762;8.660;2023-07-31T13:16:41;2.80;;;2.60;;
12373;SDS011;6251;51.762;8.660;2023-07-31T13:26:42;2.53;;;2.43;;
12373;SDS011;6251;51.762;8.660;2023-07-31T13:36:43;2.72;;;2.60;;
12373;SDS011;6251;51.762;8.660;2023-07-31T13:46:43;2.50;;;2.40;;
12373;SDS011;6251;51.762;8.660;2023-07-31T13:56:44;2.08;;;2.05;;
12373;SDS011;6251;51.762;8.660;2023-07-31T14:06:45;2.10;;;2.00;;
12373;SDS011;6251;51.762;8.660;2023-07-31T14:16:47;2.12;;;2.03;;
12373;SDS011;6251;51.762;8.660;2023-07-31T14:26:48;2.28;;;2.17;;
12373;SDS011;6251;51.762;8.660;2023-07-31T14:36:49;1.77;;;1.70;;
12373;SDS011;6251;51.762;8.660;2023-07-31T14:46:49;2.17;;;2.08;;
12373;SDS011;6251;51.762;8.660;2023-07-31T14:56:50;3.12;;;2.15;;
12373;SDS011;6251;51.762;8.660;2023-07-31T15:06:51;2.63;;;2.53;;
12373;SDS011;6251;51.762;8.660;2023-07-31T15:16:52;3.00;;;2.90;;
12373;SDS011;6251;51.762;8.660;2023-07-31T15:26:53;2.80;;;2.65;;
12373;SDS011;6251;51.762;8.660;2023-07-31T15:36:53;3.03;;;2.83;;
12373;SDS011;6251;51.762;8.660;2023-07-31T15:46:54;3.25;;;3.05;;
12373;SDS011;6251;51.762;8.660;2023-07-31T15:56:54;2.87;;;2.67;;
12373;SDS011;6251;51.762;8.660;2023-07-31T16:06:55;3.03;;;2.87;;
12373;SDS011;6251;51.762;8.660;2023-07-31T16:16:56;2.87;;;2.77;;
12373;SDS011;6251;51.762;8.660;2023-07-31T16:26:56;3.17;;;2.97;;
12373;SDS011;6251;51.762;8.660;2023-07-31T16:36:57;3.37;;;3.10;;
12373;SDS011;6251;51.762;8.660;2023-07-31T16:46:57;3.70;;;3.50;;
12373;SDS011;6251;51.762;8.660;2023-07-31T16:56:58;4.20;;;3.90;;
12373;SDS011;6251;51.762;8.660;2023-07-31T17:06:59;4.15;;;3.85;;
12373;SDS011;6251;51.762;8.660;2023-07-31T17:16:59;6.03;;;5.60;;
12373;SDS011;6251;51.762;8.660;2023-07-31T17:27:00;6.35;;;5.85;;
12373;SDS011;6251;51.762;8.660;2023-07-31T17:37:01;7.20;;;5.18;;
12373;SDS011;6251;51.762;8.660;2023-07-31T17:47:01;5.70;;;5.20;;
12373;SDS011;6251;51.762;8.660;2023-07-31T17:57:02;5.82;;;5.10;;
12373;SDS011;6251;51.762;8.660;2023-07-31T18:07:03;8.60;;;5.50;;
12373;SDS011;6251;51.762;8.660;2023-07-31T18:17:04;6.82;;;5.57;;
12373;SDS011;6251;51.762;8.660;2023-07-31T18:27:23;6.40;;;5.80;;
12373;SDS011;6251;51.762;8.660;2023-07-31T18:37:24;5.00;;;4.60;;
12373;SDS011;6251;51.762;8.660;2023-07-31T18:47:24;4.63;;;4.33;;
12373;SDS011;6251;51.762;8.660;2023-07-31T18:57:25;3.53;;;3.30;;
12373;SDS011;6251;51.762;8.660;2023-07-31T19:07:26;3.58;;;3.28;;
12373;SDS011;6251;51.762;8.660;2023-07-31T19:17:27;3.65;;;3.35;;
12373;SDS011;6251;51.762;8.660;2023-07-31T19:27:28;4.40;;;2.95;;
12373;SDS011;6251;51.762;8.660;2023-07-31T19:37:28;3.10;;;2.90;;
12373;SDS011;6251;51.762;8.660;2023-07-31T19:47:30;2.67;;;2.58;;
12373;SDS011;6251;51.762;8.660;2023-07-31T19:57:31;4.60;;;2.90;;
12373;SDS011;6251;51.762;8.660;2023-07-31T20:07:32;2.70;;;2.50;;
12373;SDS011;6251;51.762;8.660;2023-07-31T20:17:33;3.05;;;2.47;;
12373;SDS011;6251;51.762;8.660;2023-07-31T20:27:33;3.15;;;2.85;;
12373;SDS011;6251;51.762;8.660;2023-07-31T20:37:34;2.30;;;2.10;;
12373;SDS011;6251;51.762;8.660;2023-07-31T20:47:34;2.20;;;2.00;;
12373;SDS011;6251;51.762;8.660;2023-07-31T20:57:35;2.10;;;2.00;;
12373;SDS011;6251;51.762;8.660;2023-07-31T23:02:14;1.30;;;1.30;;
12373;SDS011;6251;51.762;8.660;2023-07-31T23:12:15;1.60;;;1.50;;
